Creek Data

    Home     View Charts     View Raw Data     Messages

ID Distance Battery Voltage Battery Current Internal Temp Internal Humidity External Temp Solar Input rssi snr Time Stamp Record
33864 14.9 3.98 0 70 36 62 5.1 -72 8 03/02/2025 01:30 PM 15567
33863 14.9 3.98 0 66 38 63 5.1 -73 8 03/02/2025 01:15 PM 15566
33862 14.8 3.98 0 56 44 56 5.1 -77 7 03/02/2025 01:00 PM 15565
33861 14.8 4.12 84 54 46 51 4.5 -77 7 03/02/2025 12:45 PM 15564
33860 15.0 4.02 6 64 39 57 4.5 -73 7 03/02/2025 12:30 PM 15563
33859 15.0 3.97 6 70 36 64 5.1 -74 7 03/02/2025 12:15 PM 15562
33858 15.0 4.08 6 66 37 60 5.1 -73 8 03/02/2025 12:00 PM 15561
33857 15.0 3.97 6 65 37 62 5.1 -73 7 03/02/2025 11:45 AM 15560
33856 14.9 3.97 6 65 37 60 5.1 -73 8 03/02/2025 11:30 AM 15559
33855 15.1 3.97 0 65 36 59 5.1 -75 8 03/02/2025 11:15 AM 15558
33854 15.0 3.97 6 65 36 62 5.1 -75 8 03/02/2025 11:00 AM 15557
33853 15.1 3.97 5 62 36 57 5.1 -76 8 03/02/2025 10:45 AM 15556
33852 14.9 3.97 6 60 37 60 5.1 -76 7 03/02/2025 10:30 AM 15555
33851 15.0 3.97 6 59 37 56 5.1 -75 8 03/02/2025 10:15 AM 15554
33850 15.0 4.13 7 60 36 61 5.1 -75 8 03/02/2025 10:00 AM 15553
33849 15.1 4.12 0 60 35 59 5.1 -74 8 03/02/2025 09:45 AM 15552
33848 15.0 3.97 0 55 37 56 5.1 -77 8 03/02/2025 09:30 AM 15551
33847 14.9 4.13 6 53 37 51 5.1 -74 8 03/02/2025 09:00 AM 15549
33846 14.9 4.09 7 54 36 55 5.1 -74 7 03/02/2025 08:45 AM 15548
33845 14.9 3.97 7 52 36 52 5.1 -74 8 03/02/2025 08:30 AM 15547
33844 14.9 3.96 7 51 36 54 5.1 -73 8 03/02/2025 08:15 AM 15546
33843 14.9 3.96 7 49 37 52 5.1 -73 8 03/02/2025 08:00 AM 15545
33842 14.8 4.12 7 47 38 50 5.1 -73 8 03/02/2025 07:45 AM 15544
33841 14.8 3.98 5 47 37 48 4.5 -73 8 03/02/2025 07:30 AM 15543
33840 14.8 3.99 10 48 37 49 4.5 -73 8 03/02/2025 07:15 AM 15542